sensor_id;sensor_type;location;lat;lon;timestamp;P1;durP1;ratioP1;P2;durP2;ratioP2
35634;SDS011;21757;43.610;1.440;2022-11-20T00:00:49;9.02;;;3.72;;
35634;SDS011;21757;43.610;1.440;2022-11-20T00:03:15;6.28;;;2.90;;
35634;SDS011;21757;43.610;1.440;2022-11-20T00:05:42;9.15;;;3.60;;
35634;SDS011;21757;43.610;1.440;2022-11-20T00:08:08;7.20;;;3.78;;
35634;SDS011;21757;43.610;1.440;2022-11-20T00:10:37;5.63;;;3.28;;
35634;SDS011;21757;43.610;1.440;2022-11-20T00:13:04;6.97;;;3.20;;
35634;SDS011;21757;43.610;1.440;2022-11-20T00:15:30;5.68;;;3.00;;
35634;SDS011;21757;43.610;1.440;2022-11-20T00:17:56;5.35;;;2.70;;
35634;SDS011;21757;43.610;1.440;2022-11-20T00:20:21;7.65;;;3.55;;
35634;SDS011;21757;43.610;1.440;2022-11-20T00:22:47;4.60;;;2.40;;
35634;SDS011;21757;43.610;1.440;2022-11-20T00:25:14;8.10;;;3.00;;
35634;SDS011;21757;43.610;1.440;2022-11-20T00:27:42;5.50;;;3.17;;
35634;SDS011;21757;43.610;1.440;2022-11-20T00:30:08;6.50;;;3.50;;
35634;SDS011;21757;43.610;1.440;2022-11-20T00:32:34;7.63;;;3.80;;
35634;SDS011;21757;43.610;1.440;2022-11-20T00:35:00;4.75;;;2.58;;
35634;SDS011;21757;43.610;1.440;2022-11-20T00:37:25;4.35;;;2.35;;
35634;SDS011;21757;43.610;1.440;2022-11-20T00:39:51;8.20;;;3.08;;
35634;SDS011;21757;43.610;1.440;2022-11-20T00:42:17;6.65;;;3.10;;
35634;SDS011;21757;43.610;1.440;2022-11-20T00:44:42;4.47;;;2.63;;
35634;SDS011;21757;43.610;1.440;2022-11-20T00:47:08;4.85;;;2.65;;
35634;SDS011;21757;43.610;1.440;2022-11-20T00:49:35;5.22;;;2.70;;
35634;SDS011;21757;43.610;1.440;2022-11-20T00:52:00;5.78;;;3.25;;
35634;SDS011;21757;43.610;1.440;2022-11-20T00:54:26;5.00;;;2.45;;
35634;SDS011;21757;43.610;1.440;2022-11-20T00:56:55;7.75;;;2.88;;
35634;SDS011;21757;43.610;1.440;2022-11-20T00:59:21;5.53;;;3.15;;
35634;SDS011;21757;43.610;1.440;2022-11-20T01:01:46;5.65;;;2.13;;
35634;SDS011;21757;43.610;1.440;2022-11-20T01:04:12;5.55;;;2.20;;
35634;SDS011;21757;43.610;1.440;2022-11-20T01:06:38;5.90;;;2.42;;
35634;SDS011;21757;43.610;1.440;2022-11-20T01:09:05;6.10;;;2.38;;
35634;SDS011;21757;43.610;1.440;2022-11-20T01:11:34;4.78;;;2.40;;
35634;SDS011;21757;43.610;1.440;2022-11-20T01:14:03;4.68;;;2.28;;
35634;SDS011;21757;43.610;1.440;2022-11-20T01:16:31;13.32;;;6.38;;
35634;SDS011;21757;43.610;1.440;2022-11-20T01:19:05;25.00;;;10.98;;
35634;SDS011;21757;43.610;1.440;2022-11-20T01:21:33;10.65;;;5.72;;
35634;SDS011;21757;43.610;1.440;2022-11-20T01:24:01;4.13;;;2.20;;
35634;SDS011;21757;43.610;1.440;2022-11-20T01:26:32;4.70;;;2.10;;
35634;SDS011;21757;43.610;1.440;2022-11-20T01:29:01;7.75;;;2.05;;
35634;SDS011;21757;43.610;1.440;2022-11-20T01:31:28;5.78;;;2.22;;
35634;SDS011;21757;43.610;1.440;2022-11-20T01:33:57;3.78;;;2.17;;
35634;SDS011;21757;43.610;1.440;2022-11-20T01:36:29;5.47;;;2.80;;
35634;SDS011;21757;43.610;1.440;2022-11-20T01:38:57;3.65;;;2.22;;
35634;SDS011;21757;43.610;1.440;2022-11-20T01:41:29;5.70;;;2.47;;
35634;SDS011;21757;43.610;1.440;2022-11-20T01:44:15;2.50;;;1.67;;
35634;SDS011;21757;43.610;1.440;2022-11-20T01:46:44;4.65;;;2.20;;
35634;SDS011;21757;43.610;1.440;2022-11-20T01:49:34;5.68;;;2.72;;
35634;SDS011;21757;43.610;1.440;2022-11-20T01:52:47;4.60;;;2.38;;
35634;SDS011;21757;43.610;1.440;2022-11-20T01:55:15;5.97;;;3.42;;
35634;SDS011;21757;43.610;1.440;2022-11-20T01:57:46;7.78;;;3.47;;
35634;SDS011;21757;43.610;1.440;2022-11-20T02:00:15;7.32;;;4.00;;
35634;SDS011;21757;43.610;1.440;2022-11-20T02:02:43;5.18;;;2.90;;
35634;SDS011;21757;43.610;1.440;2022-11-20T02:08:29;4.65;;;2.70;;
35634;SDS011;21757;43.610;1.440;2022-11-20T02:10:56;6.07;;;2.95;;
35634;SDS011;21757;43.610;1.440;2022-11-20T02:13:21;7.70;;;2.78;;
35634;SDS011;21757;43.610;1.440;2022-11-20T02:16:08;5.47;;;3.53;;
35634;SDS011;21757;43.610;1.440;2022-11-20T02:18:36;6.97;;;3.83;;
35634;SDS011;21757;43.610;1.440;2022-11-20T02:21:46;5.95;;;3.83;;
35634;SDS011;21757;43.610;1.440;2022-11-20T02:26:47;5.95;;;3.83;;
35634;SDS011;21757;43.610;1.440;2022-11-20T02:29:32;9.98;;;4.30;;
35634;SDS011;21757;43.610;1.440;2022-11-20T02:32:23;6.72;;;4.32;;
35634;SDS011;21757;43.610;1.440;2022-11-20T02:34:51;8.63;;;4.97;;
35634;SDS011;21757;43.610;1.440;2022-11-20T02:37:18;9.10;;;4.85;;
35634;SDS011;21757;43.610;1.440;2022-11-20T02:39:45;12.48;;;7.47;;
35634;SDS011;21757;43.610;1.440;2022-11-20T02:42:13;11.57;;;8.32;;
35634;SDS011;21757;43.610;1.440;2022-11-20T02:44:39;11.77;;;8.38;;
35634;SDS011;21757;43.610;1.440;2022-11-20T02:47:05;16.48;;;9.48;;
35634;SDS011;21757;43.610;1.440;2022-11-20T02:49:31;13.73;;;10.23;;
35634;SDS011;21757;43.610;1.440;2022-11-20T02:51:56;12.43;;;10.00;;
35634;SDS011;21757;43.610;1.440;2022-11-20T02:54:23;16.90;;;10.70;;
35634;SDS011;21757;43.610;1.440;2022-11-20T02:56:49;13.75;;;10.73;;
35634;SDS011;21757;43.610;1.440;2022-11-20T02:59:15;14.60;;;11.93;;
35634;SDS011;21757;43.610;1.440;2022-11-20T03:01:41;14.02;;;11.70;;
35634;SDS011;21757;43.610;1.440;2022-11-20T03:04:06;16.52;;;12.77;;
35634;SDS011;21757;43.610;1.440;2022-11-20T03:06:32;20.75;;;14.38;;
35634;SDS011;21757;43.610;1.440;2022-11-20T03:08:58;16.88;;;13.23;;
35634;SDS011;21757;43.610;1.440;2022-11-20T03:11:23;14.05;;;12.32;;
35634;SDS011;21757;43.610;1.440;2022-11-20T03:13:49;13.10;;;10.05;;
35634;SDS011;21757;43.610;1.440;2022-11-20T03:16:16;11.98;;;10.05;;
35634;SDS011;21757;43.610;1.440;2022-11-20T03:18:44;12.68;;;8.70;;
35634;SDS011;21757;43.610;1.440;2022-11-20T03:21:10;9.30;;;7.22;;
35634;SDS011;21757;43.610;1.440;2022-11-20T03:23:37;9.77;;;7.47;;
35634;SDS011;21757;43.610;1.440;2022-11-20T03:26:22;9.50;;;6.28;;
35634;SDS011;21757;43.610;1.440;2022-11-20T03:28:57;6.38;;;5.05;;
35634;SDS011;21757;43.610;1.440;2022-11-20T03:31:28;7.03;;;4.97;;
35634;SDS011;21757;43.610;1.440;2022-11-20T03:36:22;9.23;;;7.32;;
35634;SDS011;21757;43.610;1.440;2022-11-20T03:38:48;14.82;;;12.82;;
35634;SDS011;21757;43.610;1.440;2022-11-20T03:41:18;17.48;;;14.20;;
35634;SDS011;21757;43.610;1.440;2022-11-20T03:43:47;19.15;;;16.60;;
35634;SDS011;21757;43.610;1.440;2022-11-20T03:46:13;22.58;;;20.15;;
35634;SDS011;21757;43.610;1.440;2022-11-20T03:48:39;24.77;;;21.73;;
35634;SDS011;21757;43.610;1.440;2022-11-20T03:51:13;32.10;;;23.85;;
35634;SDS011;21757;43.610;1.440;2022-11-20T03:53:41;26.27;;;21.67;;
35634;SDS011;21757;43.610;1.440;2022-11-20T03:56:08;26.50;;;22.35;;
35634;SDS011;21757;43.610;1.440;2022-11-20T03:58:35;25.63;;;22.30;;
35634;SDS011;21757;43.610;1.440;2022-11-20T04:01:06;28.08;;;22.55;;
35634;SDS011;21757;43.610;1.440;2022-11-20T04:03:39;27.23;;;21.25;;
35634;SDS011;21757;43.610;1.440;2022-11-20T04:06:07;24.13;;;18.50;;
35634;SDS011;21757;43.610;1.440;2022-11-20T04:08:43;15.02;;;12.95;;
35634;SDS011;21757;43.610;1.440;2022-11-20T04:11:13;14.80;;;12.07;;
35634;SDS011;21757;43.610;1.440;2022-11-20T04:13:41;13.52;;;9.75;;
35634;SDS011;21757;43.610;1.440;2022-11-20T04:16:10;10.35;;;8.25;;
35634;SDS011;21757;43.610;1.440;2022-11-20T04:18:36;11.43;;;8.07;;
35634;SDS011;21757;43.610;1.440;2022-11-20T04:21:02;31.27;;;16.33;;
35634;SDS011;21757;43.610;1.440;2022-11-20T04:23:28;97.90;;;39.65;;
35634;SDS011;21757;43.610;1.440;2022-11-20T04:25:54;58.22;;;23.05;;
35634;SDS011;21757;43.610;1.440;2022-11-20T04:28:20;57.10;;;22.85;;
35634;SDS011;21757;43.610;1.440;2022-11-20T04:30:46;19.95;;;9.30;;
35634;SDS011;21757;43.610;1.440;2022-11-20T04:33:12;14.30;;;7.35;;
35634;SDS011;21757;43.610;1.440;2022-11-20T04:35:37;8.68;;;5.78;;
35634;SDS011;21757;43.610;1.440;2022-11-20T04:38:03;9.93;;;5.75;;
35634;SDS011;21757;43.610;1.440;2022-11-20T04:40:30;8.55;;;5.50;;
35634;SDS011;21757;43.610;1.440;2022-11-20T04:42:56;8.70;;;5.70;;
35634;SDS011;21757;43.610;1.440;2022-11-20T04:45:22;8.07;;;5.50;;
35634;SDS011;21757;43.610;1.440;2022-11-20T04:47:48;7.80;;;5.25;;
35634;SDS011;21757;43.610;1.440;2022-11-20T04:50:14;7.60;;;5.03;;
35634;SDS011;21757;43.610;1.440;2022-11-20T04:52:40;8.48;;;5.05;;
35634;SDS011;21757;43.610;1.440;2022-11-20T04:55:06;7.90;;;5.10;;
35634;SDS011;21757;43.610;1.440;2022-11-20T04:57:32;9.13;;;5.28;;
35634;SDS011;21757;43.610;1.440;2022-11-20T04:59:58;9.00;;;5.10;;
35634;SDS011;21757;43.610;1.440;2022-11-20T05:02:23;6.80;;;5.38;;
35634;SDS011;21757;43.610;1.440;2022-11-20T05:04:49;8.13;;;5.07;;
35634;SDS011;21757;43.610;1.440;2022-11-20T05:07:15;11.88;;;5.28;;
35634;SDS011;21757;43.610;1.440;2022-11-20T05:09:40;41.42;;;14.93;;
35634;SDS011;21757;43.610;1.440;2022-11-20T05:12:09;14.70;;;7.18;;
35634;SDS011;21757;43.610;1.440;2022-11-20T05:14:35;12.75;;;6.40;;
35634;SDS011;21757;43.610;1.440;2022-11-20T05:17:00;12.55;;;7.25;;
35634;SDS011;21757;43.610;1.440;2022-11-20T05:19:26;10.05;;;6.20;;
35634;SDS011;21757;43.610;1.440;2022-11-20T05:21:52;119.22;;;43.28;;
35634;SDS011;21757;43.610;1.440;2022-11-20T05:24:18;79.85;;;30.02;;
35634;SDS011;21757;43.610;1.440;2022-11-20T05:26:44;30.48;;;13.35;;
35634;SDS011;21757;43.610;1.440;2022-11-20T05:29:13;20.98;;;9.18;;
35634;SDS011;21757;43.610;1.440;2022-11-20T05:31:39;9.13;;;5.25;;
35634;SDS011;21757;43.610;1.440;2022-11-20T05:34:06;8.00;;;5.25;;
35634;SDS011;21757;43.610;1.440;2022-11-20T05:36:32;8.88;;;4.18;;
35634;SDS011;21757;43.610;1.440;2022-11-20T05:38:58;43.20;;;23.63;;
35634;SDS011;21757;43.610;1.440;2022-11-20T05:41:24;21.60;;;9.73;;
35634;SDS011;21757;43.610;1.440;2022-11-20T05:43:50;20.67;;;10.85;;
35634;SDS011;21757;43.610;1.440;2022-11-20T05:46:17;27.27;;;13.93;;
35634;SDS011;21757;43.610;1.440;2022-11-20T05:48:45;59.00;;;28.35;;
35634;SDS011;21757;43.610;1.440;2022-11-20T05:51:12;45.83;;;21.17;;
35634;SDS011;21757;43.610;1.440;2022-11-20T05:53:40;39.35;;;18.75;;
35634;SDS011;21757;43.610;1.440;2022-11-20T05:56:26;15.68;;;8.15;;
35634;SDS011;21757;43.610;1.440;2022-11-20T05:58:51;23.25;;;12.52;;
35634;SDS011;21757;43.610;1.440;2022-11-20T06:03:44;20.13;;;9.32;;
35634;SDS011;21757;43.610;1.440;2022-11-20T06:06:12;23.83;;;11.45;;
35634;SDS011;21757;43.610;1.440;2022-11-20T06:08:39;33.90;;;11.45;;
35634;SDS011;21757;43.610;1.440;2022-11-20T06:11:07;18.95;;;8.57;;
35634;SDS011;21757;43.610;1.440;2022-11-20T06:13:34;13.98;;;7.35;;
35634;SDS011;21757;43.610;1.440;2022-11-20T06:16:00;10.15;;;4.93;;
35634;SDS011;21757;43.610;1.440;2022-11-20T06:18:29;8.85;;;4.50;;
35634;SDS011;21757;43.610;1.440;2022-11-20T06:25:54;6.28;;;3.28;;
35634;SDS011;21757;43.610;1.440;2022-11-20T06:28:20;7.95;;;5.03;;
35634;SDS011;21757;43.610;1.440;2022-11-20T06:30:47;74.70;;;33.15;;
35634;SDS011;21757;43.610;1.440;2022-11-20T06:33:12;29.50;;;14.48;;
35634;SDS011;21757;43.610;1.440;2022-11-20T06:35:38;16.67;;;6.07;;
35634;SDS011;21757;43.610;1.440;2022-11-20T06:38:03;14.80;;;6.35;;
35634;SDS011;21757;43.610;1.440;2022-11-20T06:40:29;8.70;;;4.32;;
35634;SDS011;21757;43.610;1.440;2022-11-20T06:42:54;10.75;;;5.32;;
35634;SDS011;21757;43.610;1.440;2022-11-20T06:45:21;9.23;;;5.50;;
35634;SDS011;21757;43.610;1.440;2022-11-20T06:47:46;11.57;;;6.30;;
35634;SDS011;21757;43.610;1.440;2022-11-20T06:50:13;39.53;;;20.02;;
35634;SDS011;21757;43.610;1.440;2022-11-20T06:52:39;30.45;;;16.63;;
35634;SDS011;21757;43.610;1.440;2022-11-20T06:55:04;22.17;;;12.23;;
35634;SDS011;21757;43.610;1.440;2022-11-20T06:57:30;15.80;;;7.72;;
35634;SDS011;21757;43.610;1.440;2022-11-20T06:59:56;16.40;;;8.15;;
35634;SDS011;21757;43.610;1.440;2022-11-20T07:02:22;11.60;;;5.53;;
35634;SDS011;21757;43.610;1.440;2022-11-20T07:04:47;5.60;;;3.88;;
35634;SDS011;21757;43.610;1.440;2022-11-20T07:07:13;8.05;;;4.65;;
35634;SDS011;21757;43.610;1.440;2022-11-20T07:09:39;5.55;;;3.50;;
35634;SDS011;21757;43.610;1.440;2022-11-20T07:12:04;7.35;;;4.60;;
35634;SDS011;21757;43.610;1.440;2022-11-20T07:14:30;6.40;;;4.80;;
35634;SDS011;21757;43.610;1.440;2022-11-20T07:16:56;10.48;;;4.90;;
35634;SDS011;21757;43.610;1.440;2022-11-20T07:19:23;10.30;;;7.18;;
35634;SDS011;21757;43.610;1.440;2022-11-20T07:21:48;31.30;;;17.83;;
35634;SDS011;21757;43.610;1.440;2022-11-20T07:24:14;26.45;;;12.82;;
35634;SDS011;21757;43.610;1.440;2022-11-20T07:26:40;24.58;;;13.90;;
35634;SDS011;21757;43.610;1.440;2022-11-20T07:29:05;40.03;;;10.85;;
35634;SDS011;21757;43.610;1.440;2022-11-20T07:31:31;18.92;;;12.07;;
35634;SDS011;21757;43.610;1.440;2022-11-20T07:33:58;21.38;;;11.18;;
35634;SDS011;21757;43.610;1.440;2022-11-20T07:36:23;14.80;;;9.02;;
35634;SDS011;21757;43.610;1.440;2022-11-20T07:38:49;18.20;;;10.77;;
35634;SDS011;21757;43.610;1.440;2022-11-20T07:41:14;26.17;;;15.15;;
35634;SDS011;21757;43.610;1.440;2022-11-20T07:43:40;18.10;;;12.90;;
35634;SDS011;21757;43.610;1.440;2022-11-20T07:46:06;18.77;;;10.75;;
35634;SDS011;21757;43.610;1.440;2022-11-20T07:48:32;20.20;;;13.05;;
35634;SDS011;21757;43.610;1.440;2022-11-20T07:50:58;14.85;;;8.23;;
35634;SDS011;21757;43.610;1.440;2022-11-20T07:53:23;16.30;;;9.00;;
35634;SDS011;21757;43.610;1.440;2022-11-20T07:55:49;14.35;;;9.15;;
35634;SDS011;21757;43.610;1.440;2022-11-20T07:58:17;18.90;;;12.02;;
35634;SDS011;21757;43.610;1.440;2022-11-20T08:00:44;15.20;;;9.07;;
35634;SDS011;21757;43.610;1.440;2022-11-20T08:03:10;16.15;;;9.95;;
35634;SDS011;21757;43.610;1.440;2022-11-20T08:05:35;18.38;;;10.23;;
35634;SDS011;21757;43.610;1.440;2022-11-20T08:08:02;13.82;;;8.57;;
35634;SDS011;21757;43.610;1.440;2022-11-20T08:10:28;11.93;;;7.80;;
35634;SDS011;21757;43.610;1.440;2022-11-20T08:12:54;16.25;;;9.75;;
35634;SDS011;21757;43.610;1.440;2022-11-20T08:15:38;14.90;;;10.05;;
35634;SDS011;21757;43.610;1.440;2022-11-20T08:18:08;14.80;;;9.65;;
35634;SDS011;21757;43.610;1.440;2022-11-20T08:20:38;14.85;;;9.45;;
35634;SDS011;21757;43.610;1.440;2022-11-20T08:23:04;16.58;;;10.68;;
35634;SDS011;21757;43.610;1.440;2022-11-20T08:25:32;15.15;;;9.73;;
35634;SDS011;21757;43.610;1.440;2022-11-20T08:28:00;15.55;;;8.82;;
35634;SDS011;21757;43.610;1.440;2022-11-20T08:30:27;10.38;;;6.72;;
35634;SDS011;21757;43.610;1.440;2022-11-20T08:32:53;14.73;;;9.60;;
35634;SDS011;21757;43.610;1.440;2022-11-20T08:35:19;11.60;;;6.80;;
35634;SDS011;21757;43.610;1.440;2022-11-20T08:37:46;12.10;;;7.82;;
35634;SDS011;21757;43.610;1.440;2022-11-20T08:40:12;10.32;;;6.40;;
35634;SDS011;21757;43.610;1.440;2022-11-20T08:42:48;11.88;;;7.85;;
35634;SDS011;21757;43.610;1.440;2022-11-20T08:45:15;17.15;;;11.55;;
35634;SDS011;21757;43.610;1.440;2022-11-20T08:47:42;11.32;;;7.82;;
35634;SDS011;21757;43.610;1.440;2022-11-20T08:50:09;11.20;;;6.20;;
35634;SDS011;21757;43.610;1.440;2022-11-20T08:52:36;8.48;;;6.50;;
35634;SDS011;21757;43.610;1.440;2022-11-20T08:55:01;13.40;;;6.47;;
35634;SDS011;21757;43.610;1.440;2022-11-20T08:57:30;10.10;;;6.55;;
35634;SDS011;21757;43.610;1.440;2022-11-20T09:00:00;9.57;;;7.15;;
35634;SDS011;21757;43.610;1.440;2022-11-20T09:02:26;10.43;;;7.43;;
35634;SDS011;21757;43.610;1.440;2022-11-20T09:04:51;11.35;;;6.63;;
35634;SDS011;21757;43.610;1.440;2022-11-20T09:07:18;10.93;;;7.10;;
35634;SDS011;21757;43.610;1.440;2022-11-20T09:09:44;11.63;;;7.40;;
35634;SDS011;21757;43.610;1.440;2022-11-20T09:12:11;10.15;;;5.68;;
35634;SDS011;21757;43.610;1.440;2022-11-20T09:14:37;9.43;;;5.90;;
35634;SDS011;21757;43.610;1.440;2022-11-20T09:17:02;10.25;;;5.85;;
35634;SDS011;21757;43.610;1.440;2022-11-20T09:19:28;13.52;;;9.25;;
35634;SDS011;21757;43.610;1.440;2022-11-20T09:21:54;10.30;;;7.28;;
35634;SDS011;21757;43.610;1.440;2022-11-20T09:24:19;10.40;;;7.10;;
35634;SDS011;21757;43.610;1.440;2022-11-20T09:26:48;13.30;;;8.77;;
35634;SDS011;21757;43.610;1.440;2022-11-20T09:29:13;10.60;;;8.07;;
35634;SDS011;21757;43.610;1.440;2022-11-20T09:31:39;11.98;;;7.85;;
35634;SDS011;21757;43.610;1.440;2022-11-20T09:34:05;10.73;;;7.20;;
35634;SDS011;21757;43.610;1.440;2022-11-20T09:36:30;10.77;;;7.82;;
35634;SDS011;21757;43.610;1.440;2022-11-20T09:38:56;12.07;;;7.45;;
35634;SDS011;21757;43.610;1.440;2022-11-20T09:41:30;13.18;;;7.80;;
35634;SDS011;21757;43.610;1.440;2022-11-20T09:46:45;11.98;;;8.32;;
35634;SDS011;21757;43.610;1.440;2022-11-20T09:54:53;11.30;;;6.80;;
35634;SDS011;21757;43.610;1.440;2022-11-20T09:57:29;13.13;;;9.43;;
35634;SDS011;21757;43.610;1.440;2022-11-20T10:00:02;10.70;;;7.65;;
35634;SDS011;21757;43.610;1.440;2022-11-20T10:02:35;14.50;;;8.85;;
35634;SDS011;21757;43.610;1.440;2022-11-20T10:08:21;12.13;;;8.10;;
35634;SDS011;21757;43.610;1.440;2022-11-20T10:10:52;13.02;;;8.27;;
35634;SDS011;21757;43.610;1.440;2022-11-20T10:13:40;19.33;;;12.38;;
35634;SDS011;21757;43.610;1.440;2022-11-20T10:26:58;11.98;;;7.72;;
35634;SDS011;21757;43.610;1.440;2022-11-20T10:29:47;13.60;;;9.02;;
35634;SDS011;21757;43.610;1.440;2022-11-20T10:32:24;12.90;;;7.40;;
35634;SDS011;21757;43.610;1.440;2022-11-20T10:35:19;10.32;;;7.95;;
35634;SDS011;21757;43.610;1.440;2022-11-20T10:38:02;14.10;;;8.48;;
35634;SDS011;21757;43.610;1.440;2022-11-20T10:40:41;10.82;;;7.38;;
35634;SDS011;21757;43.610;1.440;2022-11-20T10:46:03;19.08;;;10.20;;
35634;SDS011;21757;43.610;1.440;2022-11-20T10:48:33;11.77;;;7.97;;
35634;SDS011;21757;43.610;1.440;2022-11-20T10:56:46;15.40;;;10.10;;
35634;SDS011;21757;43.610;1.440;2022-11-20T11:02:14;9.55;;;6.97;;
35634;SDS011;21757;43.610;1.440;2022-11-20T11:04:48;12.13;;;7.85;;
35634;SDS011;21757;43.610;1.440;2022-11-20T11:09:56;13.57;;;7.82;;
35634;SDS011;21757;43.610;1.440;2022-11-20T11:12:22;9.75;;;6.65;;
35634;SDS011;21757;43.610;1.440;2022-11-20T11:14:51;10.82;;;6.45;;
35634;SDS011;21757;43.610;1.440;2022-11-20T11:17:26;11.75;;;7.45;;
35634;SDS011;21757;43.610;1.440;2022-11-20T11:19:57;39.75;;;21.95;;
35634;SDS011;21757;43.610;1.440;2022-11-20T11:22:33;10.40;;;6.97;;
35634;SDS011;21757;43.610;1.440;2022-11-20T11:25:07;28.30;;;14.65;;
35634;SDS011;21757;43.610;1.440;2022-11-20T11:28:19;10.80;;;6.80;;
35634;SDS011;21757;43.610;1.440;2022-11-20T11:30:47;12.82;;;6.43;;
35634;SDS011;21757;43.610;1.440;2022-11-20T11:35:56;7.47;;;4.90;;
35634;SDS011;21757;43.610;1.440;2022-11-20T11:40:55;8.65;;;4.38;;
35634;SDS011;21757;43.610;1.440;2022-11-20T11:43:23;8.95;;;5.63;;
35634;SDS011;21757;43.610;1.440;2022-11-20T11:46:31;7.70;;;4.95;;
35634;SDS011;21757;43.610;1.440;2022-11-20T11:48:59;6.65;;;4.70;;
35634;SDS011;21757;43.610;1.440;2022-11-20T11:51:36;7.40;;;5.10;;
35634;SDS011;21757;43.610;1.440;2022-11-20T11:54:14;7.78;;;4.78;;
35634;SDS011;21757;43.610;1.440;2022-11-20T11:57:03;10.45;;;6.47;;
35634;SDS011;21757;43.610;1.440;2022-11-20T12:04:56;6.63;;;4.35;;
35634;SDS011;21757;43.610;1.440;2022-11-20T12:10:04;38.40;;;24.38;;
35634;SDS011;21757;43.610;1.440;2022-11-20T12:12:38;26.33;;;15.88;;
35634;SDS011;21757;43.610;1.440;2022-11-20T12:17:36;11.27;;;7.05;;
35634;SDS011;21757;43.610;1.440;2022-11-20T12:20:02;17.25;;;10.10;;
35634;SDS011;21757;43.610;1.440;2022-11-20T12:22:38;9.15;;;6.13;;
35634;SDS011;21757;43.610;1.440;2022-11-20T12:25:29;8.32;;;4.90;;
35634;SDS011;21757;43.610;1.440;2022-11-20T12:30:32;6.70;;;4.80;;
35634;SDS011;21757;43.610;1.440;2022-11-20T12:41:15;8.98;;;5.28;;
35634;SDS011;21757;43.610;1.440;2022-11-20T12:47:27;9.95;;;5.13;;
35634;SDS011;21757;43.610;1.440;2022-11-20T12:58:46;11.02;;;6.03;;
35634;SDS011;21757;43.610;1.440;2022-11-20T13:01:25;11.40;;;5.40;;
35634;SDS011;21757;43.610;1.440;2022-11-20T13:07:16;7.32;;;3.42;;
35634;SDS011;21757;43.610;1.440;2022-11-20T13:09:43;16.35;;;9.13;;
35634;SDS011;21757;43.610;1.440;2022-11-20T13:12:25;5.28;;;2.90;;
35634;SDS011;21757;43.610;1.440;2022-11-20T13:17:46;7.82;;;4.30;;
35634;SDS011;21757;43.610;1.440;2022-11-20T13:20:20;6.28;;;4.47;;
35634;SDS011;21757;43.610;1.440;2022-11-20T13:22:47;7.88;;;3.15;;
35634;SDS011;21757;43.610;1.440;2022-11-20T13:25:27;4.30;;;1.90;;
35634;SDS011;21757;43.610;1.440;2022-11-20T13:27:58;3.33;;;1.60;;
35634;SDS011;21757;43.610;1.440;2022-11-20T13:30:29;3.20;;;1.42;;
35634;SDS011;21757;43.610;1.440;2022-11-20T13:32:56;4.07;;;1.77;;
35634;SDS011;21757;43.610;1.440;2022-11-20T13:35:37;4.63;;;2.03;;
35634;SDS011;21757;43.610;1.440;2022-11-20T13:38:10;6.35;;;1.90;;
35634;SDS011;21757;43.610;1.440;2022-11-20T13:40:49;4.68;;;2.17;;
35634;SDS011;21757;43.610;1.440;2022-11-20T13:46:03;5.57;;;2.63;;
35634;SDS011;21757;43.610;1.440;2022-11-20T13:48:34;4.00;;;2.20;;
35634;SDS011;21757;43.610;1.440;2022-11-20T14:02:50;8.43;;;4.35;;
35634;SDS011;21757;43.610;1.440;2022-11-20T14:05:36;6.55;;;2.88;;
35634;SDS011;21757;43.610;1.440;2022-11-20T14:08:04;3.80;;;2.30;;
35634;SDS011;21757;43.610;1.440;2022-11-20T14:10:32;8.77;;;4.75;;
35634;SDS011;21757;43.610;1.440;2022-11-20T14:12:58;8.10;;;4.93;;
35634;SDS011;21757;43.610;1.440;2022-11-20T14:15:36;14.88;;;7.80;;
35634;SDS011;21757;43.610;1.440;2022-11-20T14:18:13;9.85;;;4.53;;
35634;SDS011;21757;43.610;1.440;2022-11-20T14:20:44;6.65;;;2.97;;
35634;SDS011;21757;43.610;1.440;2022-11-20T14:23:10;13.07;;;3.28;;
35634;SDS011;21757;43.610;1.440;2022-11-20T14:25:36;4.68;;;2.10;;
35634;SDS011;21757;43.610;1.440;2022-11-20T14:28:10;5.63;;;2.35;;
35634;SDS011;21757;43.610;1.440;2022-11-20T14:30:50;6.03;;;2.17;;
35634;SDS011;21757;43.610;1.440;2022-11-20T14:33:16;9.55;;;2.58;;
35634;SDS011;21757;43.610;1.440;2022-11-20T14:35:45;9.95;;;2.65;;
35634;SDS011;21757;43.610;1.440;2022-11-20T14:38:16;9.38;;;5.55;;
35634;SDS011;21757;43.610;1.440;2022-11-20T14:40:45;9.18;;;2.50;;
35634;SDS011;21757;43.610;1.440;2022-11-20T14:43:18;6.22;;;2.42;;
35634;SDS011;21757;43.610;1.440;2022-11-20T14:46:05;9.45;;;2.63;;
35634;SDS011;21757;43.610;1.440;2022-11-20T14:48:46;10.60;;;2.78;;
35634;SDS011;21757;43.610;1.440;2022-11-20T14:53:53;13.77;;;2.33;;
35634;SDS011;21757;43.610;1.440;2022-11-20T14:56:22;9.38;;;2.58;;
35634;SDS011;21757;43.610;1.440;2022-11-20T14:58:55;15.37;;;3.57;;
35634;SDS011;21757;43.610;1.440;2022-11-20T15:01:25;20.13;;;5.35;;
35634;SDS011;21757;43.610;1.440;2022-11-20T15:04:05;11.02;;;2.40;;
35634;SDS011;21757;43.610;1.440;2022-11-20T15:06:32;17.73;;;7.70;;
35634;SDS011;21757;43.610;1.440;2022-11-20T15:08:58;17.13;;;3.22;;
35634;SDS011;21757;43.610;1.440;2022-11-20T15:11:33;12.43;;;3.03;;
35634;SDS011;21757;43.610;1.440;2022-11-20T15:14:02;17.25;;;2.80;;
35634;SDS011;21757;43.610;1.440;2022-11-20T15:16:31;16.70;;;3.55;;
35634;SDS011;21757;43.610;1.440;2022-11-20T15:18:59;15.02;;;3.10;;
35634;SDS011;21757;43.610;1.440;2022-11-20T15:21:27;16.30;;;3.28;;
35634;SDS011;21757;43.610;1.440;2022-11-20T15:23:54;11.30;;;3.50;;
35634;SDS011;21757;43.610;1.440;2022-11-20T15:26:26;18.63;;;3.10;;
35634;SDS011;21757;43.610;1.440;2022-11-20T15:28:53;16.77;;;3.53;;
35634;SDS011;21757;43.610;1.440;2022-11-20T15:31:20;14.57;;;5.00;;
35634;SDS011;21757;43.610;1.440;2022-11-20T15:33:48;19.98;;;4.93;;
35634;SDS011;21757;43.610;1.440;2022-11-20T15:36:14;21.17;;;6.00;;
35634;SDS011;21757;43.610;1.440;2022-11-20T15:38:40;16.60;;;2.80;;
35634;SDS011;21757;43.610;1.440;2022-11-20T15:41:06;13.18;;;2.55;;
35634;SDS011;21757;43.610;1.440;2022-11-20T15:43:32;11.82;;;2.90;;
35634;SDS011;21757;43.610;1.440;2022-11-20T15:46:02;20.52;;;5.65;;
35634;SDS011;21757;43.610;1.440;2022-11-20T15:48:39;21.33;;;4.40;;
35634;SDS011;21757;43.610;1.440;2022-11-20T15:53:39;23.15;;;5.35;;
35634;SDS011;21757;43.610;1.440;2022-11-20T15:56:09;19.90;;;4.53;;
35634;SDS011;21757;43.610;1.440;2022-11-20T15:58:37;32.13;;;9.77;;
35634;SDS011;21757;43.610;1.440;2022-11-20T16:01:03;19.55;;;5.60;;
35634;SDS011;21757;43.610;1.440;2022-11-20T16:03:28;20.92;;;5.38;;
35634;SDS011;21757;43.610;1.440;2022-11-20T16:05:55;23.30;;;3.92;;
35634;SDS011;21757;43.610;1.440;2022-11-20T16:08:20;17.85;;;3.45;;
35634;SDS011;21757;43.610;1.440;2022-11-20T16:10:46;21.17;;;4.85;;
35634;SDS011;21757;43.610;1.440;2022-11-20T16:13:16;21.27;;;4.40;;
35634;SDS011;21757;43.610;1.440;2022-11-20T16:16:02;16.65;;;3.67;;
35634;SDS011;21757;43.610;1.440;2022-11-20T16:18:31;18.88;;;3.60;;
35634;SDS011;21757;43.610;1.440;2022-11-20T16:20:57;24.58;;;5.05;;
35634;SDS011;21757;43.610;1.440;2022-11-20T16:23:23;21.08;;;4.45;;
35634;SDS011;21757;43.610;1.440;2022-11-20T16:25:49;18.55;;;3.97;;
35634;SDS011;21757;43.610;1.440;2022-11-20T16:28:15;16.67;;;3.83;;
35634;SDS011;21757;43.610;1.440;2022-11-20T16:30:41;17.90;;;3.90;;
35634;SDS011;21757;43.610;1.440;2022-11-20T16:33:10;14.65;;;3.97;;
35634;SDS011;21757;43.610;1.440;2022-11-20T16:35:38;16.50;;;3.20;;
35634;SDS011;21757;43.610;1.440;2022-11-20T16:38:04;16.10;;;3.88;;
35634;SDS011;21757;43.610;1.440;2022-11-20T16:40:30;21.58;;;3.92;;
35634;SDS011;21757;43.610;1.440;2022-11-20T16:42:55;22.80;;;4.55;;
35634;SDS011;21757;43.610;1.440;2022-11-20T16:45:22;15.10;;;3.70;;